ILUBB LIMC-LIML
Flight info
| Callsign | ILUBB |
|---|---|
| Flight time | 0h 21m |
| Altitude | 10000 |
| Route | SRN |
| Aircraft | BE36/L-BDFGLORY/S |
Departure
| Time | 2026-05-05 21:54 |
|---|---|
| Airport | Milan Malpensa International Airport (LIMC) |
Arrival
| Time | 2026-05-05 22:15 |
|---|---|
| Airport | Milano Linate Airport (LIML) |
| Time | Latitude | Longitude | Altitude | Speed | Heading |
|---|---|---|---|---|---|
| 2026-05-05 21:03 | 45.63474 | 8.71705 | 746 ft | 0 kts | 354° |
| 2026-05-05 21:27 | 45.63468 | 8.71706 | 746 ft | 2 kts | 354° |
| 2026-05-05 21:28 | 45.63451 | 8.71708 | 744 ft | 2 kts | 354° |
| 2026-05-05 21:28 | 45.63433 | 8.71711 | 744 ft | 2 kts | 354° |
| 2026-05-05 21:28 | 45.63423 | 8.71712 | 745 ft | 0 kts | 355° |
| 2026-05-05 21:28 | 45.63421 | 8.71712 | 745 ft | 2 kts | 354° |
| 2026-05-05 21:29 | 45.63415 | 8.71713 | 744 ft | 0 kts | 355° |
| 2026-05-05 21:29 | 45.63423 | 8.71725 | 743 ft | 0 kts | 98° |
| 2026-05-05 21:30 | 45.63417 | 8.71793 | 743 ft | 13 kts | 111° |
| 2026-05-05 21:30 | 45.63288 | 8.71855 | 742 ft | 28 kts | 169° |
| 2026-05-05 21:30 | 45.63074 | 8.71915 | 738 ft | 34 kts | 169° |
| 2026-05-05 21:30 | 45.62832 | 8.71982 | 733 ft | 36 kts | 168° |
| 2026-05-05 21:31 | 45.62759 | 8.72003 | 732 ft | 0 kts | 169° |
| 2026-05-05 21:31 | 45.62662 | 8.72031 | 730 ft | 22 kts | 170° |
| 2026-05-05 21:31 | 45.62476 | 8.72083 | 726 ft | 32 kts | 167° |
| 2026-05-05 21:31 | 45.62236 | 8.72148 | 722 ft | 37 kts | 171° |
| 2026-05-05 21:32 | 45.61985 | 8.72216 | 717 ft | 38 kts | 169° |
| 2026-05-05 21:32 | 45.61736 | 8.72285 | 713 ft | 37 kts | 167° |
| 2026-05-05 21:32 | 45.61535 | 8.72341 | 706 ft | 16 kts | 170° |
| 2026-05-05 21:32 | 45.61449 | 8.72361 | 704 ft | 12 kts | 169° |
| 2026-05-05 21:33 | 45.61401 | 8.72387 | 702 ft | 19 kts | 122° |
| 2026-05-05 21:33 | 45.61249 | 8.72531 | 702 ft | 36 kts | 168° |
| 2026-05-05 21:33 | 45.61080 | 8.72617 | 699 ft | 12 kts | 114° |
| 2026-05-05 21:33 | 45.61078 | 8.72624 | 699 ft | 0 kts | 104° |
| 2026-05-05 21:34 | 45.61082 | 8.72702 | 698 ft | 25 kts | 70° |
| 2026-05-05 21:35 | 45.61126 | 8.73000 | 699 ft | 32 kts | 78° |
| 2026-05-05 21:35 | 45.61274 | 8.73185 | 693 ft | 27 kts | 34° |
| 2026-05-05 21:35 | 45.61457 | 8.73256 | 699 ft | 26 kts | 350° |
| 2026-05-05 21:35 | 45.61615 | 8.73265 | 702 ft | 17 kts | 62° |
| 2026-05-05 21:36 | 45.61625 | 8.73324 | 703 ft | 0 kts | 78° |
| 2026-05-05 21:39 | 45.61626 | 8.73333 | 703 ft | 5 kts | 78° |
| 2026-05-05 21:39 | 45.61635 | 8.73394 | 700 ft | 4 kts | 83° |
| 2026-05-05 21:39 | 45.61635 | 8.73400 | 697 ft | 0 kts | 88° |
| 2026-05-05 21:42 | 45.61635 | 8.73415 | 700 ft | 5 kts | 95° |
| 2026-05-05 21:42 | 45.61620 | 8.73467 | 701 ft | 5 kts | 119° |
| 2026-05-05 21:42 | 45.61610 | 8.73491 | 699 ft | 0 kts | 117° |
| 2026-05-05 21:45 | 45.61601 | 8.73515 | 696 ft | 7 kts | 116° |
| 2026-05-05 21:45 | 45.61589 | 8.73565 | 696 ft | 0 kts | 100° |
| 2026-05-05 21:48 | 45.61588 | 8.73580 | 696 ft | 1 kts | 98° |
| 2026-05-05 21:48 | 45.61587 | 8.73582 | 696 ft | 0 kts | 98° |
| 2026-05-05 21:49 | 45.61587 | 8.73585 | 696 ft | 2 kts | 97° |
| 2026-05-05 21:49 | 45.61587 | 8.73586 | 696 ft | 0 kts | 95° |
| 2026-05-05 21:51 | 45.61588 | 8.73621 | 699 ft | 19 kts | 82° |
| 2026-05-05 21:51 | 45.61604 | 8.73697 | 698 ft | 0 kts | 54° |
| 2026-05-05 21:52 | 45.61622 | 8.73729 | 698 ft | 10 kts | 31° |
| 2026-05-05 21:52 | 45.61636 | 8.73733 | 698 ft | 0 kts | 351° |
| 2026-05-05 21:53 | 45.61637 | 8.73732 | 698 ft | 2 kts | 351° |
| 2026-05-05 21:53 | 45.61976 | 8.73638 | 726 ft | 86 kts | 347° |
| 2026-05-05 21:53 | 45.62637 | 8.73395 | 1136 ft | 101 kts | 345° |
| 2026-05-05 21:54 | 45.63329 | 8.73234 | 1748 ft | 100 kts | 6° |
| 2026-05-05 21:54 | 45.64054 | 8.73235 | 2261 ft | 110 kts | 359° |
| 2026-05-05 21:54 | 45.64865 | 8.73193 | 2685 ft | 125 kts | 360° |
| 2026-05-05 21:54 | 45.65778 | 8.73126 | 3086 ft | 137 kts | 358° |
| 2026-05-05 21:55 | 45.66759 | 8.73034 | 3478 ft | 145 kts | 357° |
| 2026-05-05 21:55 | 45.67777 | 8.72931 | 3868 ft | 149 kts | 356° |
| 2026-05-05 21:55 | 45.68816 | 8.72825 | 4258 ft | 151 kts | 356° |
| 2026-05-05 21:55 | 45.69866 | 8.72718 | 4649 ft | 152 kts | 356° |
| 2026-05-05 21:56 | 45.70920 | 8.72614 | 5025 ft | 151 kts | 358° |
| 2026-05-05 21:56 | 45.71888 | 8.73056 | 5394 ft | 148 kts | 43° |
| 2026-05-05 21:56 | 45.72475 | 8.74236 | 5774 ft | 145 kts | 63° |
| 2026-05-05 21:56 | 45.72984 | 8.75521 | 5990 ft | 157 kts | 63° |
| 2026-05-05 21:57 | 45.73542 | 8.76935 | 6005 ft | 172 kts | 62° |
| 2026-05-05 21:57 | 45.74148 | 8.78486 | 6006 ft | 179 kts | 66° |
| 2026-05-05 21:57 | 45.74419 | 8.80210 | 6003 ft | 179 kts | 92° |
| 2026-05-05 21:57 | 45.74186 | 8.81953 | 6000 ft | 179 kts | 111° |
| 2026-05-05 21:58 | 45.73778 | 8.83614 | 6001 ft | 180 kts | 111° |
| 2026-05-05 21:58 | 45.73218 | 8.85195 | 5999 ft | 178 kts | 128° |
| 2026-05-05 21:58 | 45.72478 | 8.86619 | 6001 ft | 179 kts | 127° |
| 2026-05-05 21:58 | 45.71752 | 8.88065 | 6000 ft | 179 kts | 127° |
| 2026-05-05 21:59 | 45.71022 | 8.89511 | 6001 ft | 179 kts | 128° |
| 2026-05-05 21:59 | 45.70291 | 8.90954 | 6001 ft | 179 kts | 128° |
| 2026-05-05 21:59 | 45.69559 | 8.92396 | 6001 ft | 179 kts | 128° |
| 2026-05-05 21:59 | 45.68828 | 8.93838 | 6001 ft | 179 kts | 128° |
| 2026-05-05 22:00 | 45.68096 | 8.95279 | 5998 ft | 179 kts | 128° |
| 2026-05-05 22:00 | 45.67207 | 8.96477 | 5995 ft | 176 kts | 150° |
| 2026-05-05 22:00 | 45.66128 | 8.97313 | 5996 ft | 176 kts | 153° |
| 2026-05-05 22:00 | 45.65041 | 8.98132 | 5997 ft | 177 kts | 153° |
| 2026-05-05 22:01 | 45.63954 | 8.98950 | 6000 ft | 177 kts | 153° |
| 2026-05-05 22:01 | 45.62865 | 8.99767 | 6000 ft | 177 kts | 153° |
| 2026-05-05 22:01 | 45.61783 | 9.00578 | 6080 ft | 171 kts | 153° |
| 2026-05-05 22:01 | 45.60759 | 9.01354 | 6326 ft | 163 kts | 154° |
| 2026-05-05 22:02 | 45.59795 | 9.02109 | 6561 ft | 158 kts | 153° |
| 2026-05-05 22:02 | 45.58840 | 9.02865 | 6792 ft | 155 kts | 153° |
| 2026-05-05 22:02 | 45.57905 | 9.03612 | 7036 ft | 153 kts | 153° |
| 2026-05-05 22:02 | 45.56981 | 9.04353 | 7277 ft | 152 kts | 153° |
| 2026-05-05 22:03 | 45.56066 | 9.05093 | 7520 ft | 150 kts | 153° |
| 2026-05-05 22:03 | 45.55162 | 9.05829 | 7765 ft | 149 kts | 153° |
| 2026-05-05 22:03 | 45.54261 | 9.06567 | 7966 ft | 151 kts | 153° |
| 2026-05-05 22:03 | 45.53310 | 9.07338 | 7971 ft | 162 kts | 153° |
| 2026-05-05 22:04 | 45.52309 | 9.08142 | 7978 ft | 167 kts | 153° |
| 2026-05-05 22:04 | 45.51285 | 9.08961 | 7935 ft | 172 kts | 153° |
| 2026-05-05 22:04 | 45.50217 | 9.09814 | 7815 ft | 178 kts | 153° |
| 2026-05-05 22:04 | 45.49106 | 9.10696 | 7574 ft | 186 kts | 153° |
| 2026-05-05 22:05 | 45.47958 | 9.11599 | 7332 ft | 190 kts | 153° |
| 2026-05-05 22:05 | 45.46794 | 9.12514 | 7090 ft | 192 kts | 153° |
| 2026-05-05 22:05 | 45.45633 | 9.13423 | 6845 ft | 193 kts | 153° |
| 2026-05-05 22:05 | 45.44447 | 9.14324 | 6609 ft | 193 kts | 159° |
| 2026-05-05 22:06 | 45.43149 | 9.14756 | 6366 ft | 192 kts | 172° |
| 2026-05-05 22:06 | 45.41824 | 9.15023 | 6113 ft | 193 kts | 173° |
| 2026-05-05 22:06 | 45.40490 | 9.15279 | 5856 ft | 193 kts | 174° |
| 2026-05-05 22:06 | 45.39167 | 9.15548 | 5603 ft | 192 kts | 173° |
| 2026-05-05 22:07 | 45.37848 | 9.15823 | 5352 ft | 192 kts | 173° |
| 2026-05-05 22:07 | 45.36529 | 9.16099 | 5098 ft | 192 kts | 173° |
| 2026-05-05 22:07 | 45.35208 | 9.16377 | 4853 ft | 192 kts | 173° |
| 2026-05-05 22:07 | 45.33888 | 9.16653 | 4601 ft | 192 kts | 173° |
| 2026-05-05 22:08 | 45.32560 | 9.16922 | 4344 ft | 193 kts | 173° |
| 2026-05-05 22:08 | 45.31245 | 9.17178 | 4090 ft | 186 kts | 173° |
| 2026-05-05 22:08 | 45.29999 | 9.17410 | 3836 ft | 176 kts | 173° |
| 2026-05-05 22:08 | 45.28874 | 9.17652 | 3573 ft | 154 kts | 162° |
| 2026-05-05 22:09 | 45.28144 | 9.18628 | 3307 ft | 146 kts | 113° |
| 2026-05-05 22:09 | 45.27928 | 9.19971 | 3044 ft | 132 kts | 104° |
| 2026-05-05 22:09 | 45.27767 | 9.21149 | 2766 ft | 111 kts | 103° |
| 2026-05-05 22:09 | 45.27624 | 9.22171 | 2500 ft | 101 kts | 104° |
| 2026-05-05 22:10 | 45.27493 | 9.23170 | 2495 ft | 102 kts | 103° |
| 2026-05-05 22:10 | 45.27362 | 9.24143 | 2499 ft | 101 kts | 103° |
| 2026-05-05 22:10 | 45.27468 | 9.25112 | 2494 ft | 106 kts | 54° |
| 2026-05-05 22:10 | 45.27959 | 9.25886 | 2493 ft | 105 kts | 54° |
| 2026-05-05 22:11 | 45.28434 | 9.26677 | 2495 ft | 106 kts | 53° |
| 2026-05-05 22:11 | 45.28969 | 9.27395 | 2498 ft | 109 kts | 27° |
| 2026-05-05 22:11 | 45.29764 | 9.27781 | 2505 ft | 130 kts | 24° |
| 2026-05-05 22:11 | 45.30644 | 9.28254 | 2509 ft | 139 kts | 24° |
| 2026-05-05 22:12 | 45.31574 | 9.28690 | 2507 ft | 142 kts | 18° |
| 2026-05-05 22:12 | 45.32552 | 9.28904 | 2479 ft | 144 kts | 360° |
| 2026-05-05 22:12 | 45.33558 | 9.28850 | 2314 ft | 146 kts | 0° |
| 2026-05-05 22:12 | 45.34559 | 9.28769 | 2124 ft | 146 kts | 360° |
| 2026-05-05 22:13 | 45.35578 | 9.28673 | 1928 ft | 147 kts | 358° |
| 2026-05-05 22:13 | 45.36599 | 9.28555 | 1733 ft | 147 kts | 359° |
| 2026-05-05 22:13 | 45.37620 | 9.28446 | 1529 ft | 146 kts | 359° |
| 2026-05-05 22:13 | 45.38635 | 9.28337 | 1329 ft | 146 kts | 358° |
| 2026-05-05 22:14 | 45.39628 | 9.28230 | 1124 ft | 134 kts | 358° |
| 2026-05-05 22:14 | 45.40476 | 9.28135 | 953 ft | 116 kts | 360° |
| 2026-05-05 22:14 | 45.41214 | 9.28054 | 772 ft | 96 kts | 356° |
| 2026-05-05 22:14 | 45.41890 | 9.27973 | 731 ft | 99 kts | 358° |
| 2026-05-05 22:15 | 45.42567 | 9.27911 | 607 ft | 98 kts | 357° |
| 2026-05-05 22:15 | 45.43219 | 9.27834 | 475 ft | 80 kts | 359° |
| 2026-05-05 22:15 | 45.43731 | 9.27786 | 363 ft | 68 kts | 359° |
| 2026-05-05 22:15 | 45.44108 | 9.27752 | 345 ft | 45 kts | 355° |
| 2026-05-05 22:16 | 45.44463 | 9.27713 | 351 ft | 59 kts | 356° |
| 2026-05-05 22:16 | 45.44839 | 9.27646 | 355 ft | 43 kts | 327° |
| 2026-05-05 22:16 | 45.45163 | 9.26803 | 355 ft | 45 kts | 265° |
| 2026-05-05 22:17 | 45.45255 | 9.26456 | 358 ft | 33 kts | 294° |
| 2026-05-05 22:17 | 45.45409 | 9.26341 | 357 ft | 19 kts | 43° |
| 2026-05-05 22:17 | 45.45401 | 9.26386 | 360 ft | 11 kts | 211° |
| 2026-05-05 22:17 | 45.45388 | 9.26365 | 356 ft | 0 kts | 245° |